Time;durP1;ratioP1;P1;durP2;ratioP2;P2;SDS_P1;SDS_P2;PMS_P1;PMS_P2;Temp;Humidity;BMP_temperature;BMP_pressure;BME280_temperature;BME280_humidity;BME280_pressure;Samples;Min_cycle;Max_cycle;Signal;HPM_P1;HPM_P2
2022/10/04 02:34:00;;;;;;;4.45;1.10;;;;;;;9.62;100.00;99066.31;14813005;19;9999956;-78
2022/10/04 02:39:28;;;;;;;5.28;1.40;;;;;;;9.58;100.00;99056.81;15332799;19;20025;-79
2022/10/04 02:44:58;;;;;;;3.42;1.23;;;;;;;9.53;100.00;99051.84;15299436;19;20035;-79
2022/10/04 02:50:32;;;;;;;4.80;1.40;;;;;;;9.49;100.00;99053.13;15295977;19;20021;-79
2022/10/04 02:55:58;;;;;;;6.05;1.40;;;;;;;9.38;100.00;99061.28;15313107;19;20011;-78
2022/10/04 03:01:28;;;;;;;7.05;1.52;;;;;;;9.35;100.00;99050.84;15337861;19;20032;-78
2022/10/04 03:06:56;;;;;;;4.72;1.35;;;;;;;9.31;100.00;99052.94;15355646;19;20030;-78
2022/10/04 03:12:21;;;;;;;4.20;1.33;;;;;;;9.30;100.00;99051.22;15307284;19;20014;-77
2022/10/04 03:17:49;;;;;;;4.55;1.40;;;;;;;9.29;100.00;99040.63;15318118;19;20089;-78
2022/10/04 03:23:19;;;;;;;4.65;1.30;;;;;;;9.29;100.00;99037.94;15322510;19;20039;-78
2022/10/04 03:28:46;;;;;;;6.22;1.40;;;;;;;9.27;100.00;99048.84;15329770;19;20026;-77
2022/10/04 03:34:23;;;;;;;4.60;1.38;;;;;;;9.26;100.00;99039.06;15328847;19;20612;-78
2022/10/04 03:39:53;;;;;;;4.18;1.38;;;;;;;9.24;100.00;99022.22;15332835;19;20031;-77
2022/10/04 03:45:25;;;;;;;3.63;1.38;;;;;;;9.18;100.00;99031.69;15330956;19;20022;-77
2022/10/04 03:50:51;;;;;;;5.43;1.70;;;;;;;9.15;100.00;99049.94;15325901;19;20022;-78
2022/10/04 03:56:21;;;;;;;5.05;1.40;;;;;;;9.13;100.00;99050.03;15300625;19;20119;-60
2022/10/04 04:01:50;;;;;;;4.82;1.40;;;;;;;9.13;100.00;99049.22;15272498;19;20529;-62
2022/10/04 04:07:20;;;;;;;4.07;1.30;;;;;;;9.12;100.00;99008.03;15282072;19;20394;-61
2022/10/04 04:12:53;;;;;;;5.07;1.35;;;;;;;9.09;100.00;99038.72;15260319;19;20023;-59
2022/10/04 04:18:25;;;;;;;5.88;1.50;;;;;;;9.03;100.00;99049.16;15270372;19;20015;-60
2022/10/04 04:23:55;;;;;;;4.13;1.60;;;;;;;9.01;100.00;99053.81;15266089;19;20006;-60
2022/10/04 04:29:29;;;;;;;6.55;1.50;;;;;;;8.97;100.00;99052.41;15282518;19;20440;-59
2022/10/04 04:34:59;;;;;;;8.18;1.50;;;;;;;8.96;100.00;99064.16;15274740;19;20367;-59
2022/10/04 04:40:28;;;;;;;5.90;1.40;;;;;;;8.98;100.00;99054.13;15281708;19;20018;-61
2022/10/04 04:45:57;;;;;;;4.50;1.50;;;;;;;8.99;100.00;99039.69;15278633;19;20047;-60
2022/10/04 04:51:41;;;;;;;6.88;1.50;;;;;;;8.97;100.00;99038.97;15273091;19;20537;-59
2022/10/04 04:57:07;;;;;;;5.75;1.90;;;;;;;8.96;100.00;99037.28;15271068;19;20031;-59
2022/10/04 05:02:45;;;;;;;4.90;1.50;;;;;;;8.95;100.00;99033.72;15273206;19;20044;-60
2022/10/04 05:08:20;;;;;;;6.30;2.20;;;;;;;8.94;100.00;99022.13;15275818;19;20026;-59
2022/10/04 05:13:48;;;;;;;4.13;1.85;;;;;;;8.94;100.00;99029.31;15273540;19;20039;-59
2022/10/04 05:19:20;;;;;;;5.15;1.85;;;;;;;8.94;100.00;99026.63;15274576;19;20014;-60
2022/10/04 05:24:49;;;;;;;3.22;1.70;;;;;;;8.93;100.00;99023.13;15276062;19;20026;-60
2022/10/04 05:30:29;;;;;;;6.85;1.85;;;;;;;8.96;100.00;99023.84;15275096;19;20014;-59
2022/10/04 05:36:09;;;;;;;7.50;1.80;;;;;;;8.94;100.00;99027.50;15275521;19;20019;-60
2022/10/04 05:41:41;;;;;;;6.93;2.20;;;;;;;8.95;100.00;99028.34;15275457;19;20033;-59
2022/10/04 05:47:08;;;;;;;6.30;1.77;;;;;;;8.96;100.00;99034.59;15282928;19;20035;-59
2022/10/04 05:52:38;;;;;;;5.50;1.90;;;;;;;8.97;100.00;99033.59;15284197;19;20365;-60
2022/10/04 05:58:43;;;;;;;5.40;1.90;;;;;;;8.97;100.00;99047.03;15290178;19;20010;-60
2022/10/04 06:04:41;;;;;;;5.10;1.63;;;;;;;9.02;100.00;99055.53;15283037;19;20007;-57
2022/10/04 06:10:28;;;;;;;5.65;1.70;;;;;;;9.03;100.00;99052.72;15286498;19;20377;-57
2022/10/04 06:16:04;;;;;;;5.00;1.70;;;;;;;9.08;100.00;99049.63;15288669;19;20493;-56
2022/10/04 06:21:33;;;;;;;6.55;1.80;;;;;;;9.10;100.00;99058.41;15290050;19;20039;-53
2022/10/04 06:27:06;;;;;;;6.35;1.80;;;;;;;9.18;100.00;99063.94;15291162;19;20018;-56
2022/10/04 06:32:51;;;;;;;4.20;1.33;;;;;;;9.23;100.00;99063.53;15281544;19;20331;-56
2022/10/04 06:38:34;;;;;;;5.78;1.70;;;;;;;9.28;100.00;99063.97;15284575;19;20039;-55
2022/10/04 06:44:20;;;;;;;4.95;1.65;;;;;;;9.31;100.00;99049.41;15286094;19;20030;-57
2022/10/04 06:49:51;;;;;;;5.35;1.80;;;;;;;9.37;100.00;99049.72;15293473;19;20360;-58
2022/10/04 06:56:03;;;;;;;3.97;1.60;;;;;;;9.42;100.00;99051.97;15287242;19;20029;-55
2022/10/04 07:01:33;;;;;;;5.15;1.60;;;;;;;9.50;100.00;99062.88;15281564;19;20024;-57
2022/10/04 07:12:58;;;;;;;4.57;1.70;;;;;;;9.68;100.00;99063.06;15284145;19;20007;-53
2022/10/04 07:18:30;;;;;;;3.45;1.40;;;;;;;9.80;100.00;99071.00;15282508;19;20034;-55
2022/10/04 07:24:00;;;;;;;4.15;1.70;;;;;;;9.91;100.00;99072.72;15276139;19;20017;-57
2022/10/04 07:29:29;;;;;;;3.88;1.50;;;;;;;9.97;100.00;99058.69;15287080;19;20010;-59
2022/10/04 07:35:07;;;;;;;4.50;1.58;;;;;;;10.09;100.00;99062.09;15280855;19;20358;-57
2022/10/04 07:40:36;;;;;;;5.68;1.63;;;;;;;10.14;100.00;99071.44;15279911;19;20006;-59
2022/10/04 07:46:09;;;;;;;3.00;1.33;;;;;;;10.27;100.00;99076.53;15285273;19;20358;-60
2022/10/04 07:51:45;;;;;;;5.28;1.40;;;;;;;10.35;100.00;99083.06;15277773;19;20503;-57
2022/10/04 07:57:22;;;;;;;4.45;1.52;;;;;;;10.47;100.00;99080.09;15283723;19;20043;-59
2022/10/04 08:03:00;;;;;;;5.03;1.80;;;;;;;10.57;100.00;99085.47;15279849;19;20049;-60
2022/10/04 08:08:44;;;;;;;4.25;1.60;;;;;;;10.70;100.00;99082.44;15280500;19;20619;-58
2022/10/04 08:14:29;;;;;;;5.55;1.60;;;;;;;10.87;100.00;99090.78;15284072;19;20014;-56
2022/10/04 08:20:03;;;;;;;4.32;1.48;;;;;;;11.00;100.00;99075.09;15281634;19;20026;-58
2022/10/04 08:25:37;;;;;;;4.03;1.50;;;;;;;11.10;100.00;99075.94;15282132;19;20025;-60
2022/10/04 08:31:25;;;;;;;3.70;1.35;;;;;;;11.27;100.00;99077.97;15283703;19;20043;-58
2022/10/04 08:37:03;;;;;;;5.18;1.70;;;;;;;11.35;100.00;99064.59;15096474;19;20018;-57
2022/10/04 08:43:03;;;;;;;4.22;1.50;;;;;;;11.47;100.00;99079.56;15269017;19;20064;-54
2022/10/04 08:48:59;;;;;;;4.50;1.40;;;;;;;11.62;100.00;99068.28;15276979;19;20338;-58
2022/10/04 08:55:04;;;;;;;4.80;1.60;;;;;;;11.75;100.00;99073.28;15272568;19;20018;-55
2022/10/04 09:00:47;;;;;;;3.38;1.23;;;;;;;11.87;100.00;99074.75;15273622;19;20489;-59
2022/10/04 09:06:25;;;;;;;4.45;1.20;;;;;;;11.94;100.00;99073.13;15278573;19;20026;-53
2022/10/04 09:12:09;;;;;;;4.55;1.40;;;;;;;12.04;100.00;99066.84;15278048;19;20025;-55
2022/10/04 09:17:45;;;;;;;3.70;1.35;;;;;;;12.07;100.00;99053.03;15279221;19;20018;-59
2022/10/04 09:23:25;;;;;;;4.55;1.40;;;;;;;12.15;100.00;99048.53;15281690;19;20437;-59
2022/10/04 09:29:24;;;;;;;3.80;1.40;;;;;;;12.28;100.00;99045.47;15297825;19;20015;-56
2022/10/04 09:35:08;;;;;;;3.38;1.20;;;;;;;12.33;100.00;99040.41;15293238;19;20010;-59
2022/10/04 09:41:02;;;;;;;2.78;1.02;;;;;;;12.30;100.00;99051.53;15293386;19;20078;-59
2022/10/04 09:46:46;;;;;;;4.18;1.55;;;;;;;12.44;100.00;99043.88;15291888;19;20035;-59
2022/10/04 09:52:42;;;;;;;2.75;1.30;;;;;;;12.62;100.00;99050.09;15288989;19;20043;-58
2022/10/04 09:58:24;;;;;;;5.32;1.20;;;;;;;12.85;100.00;99038.72;15297892;19;20512;-57
2022/10/04 10:04:09;;;;;;;2.88;1.30;;;;;;;12.93;100.00;99040.63;15285057;19;20010;-58
2022/10/04 10:15:38;;;;;;;3.15;1.70;;;;;;;13.37;100.00;99035.06;15286400;19;20025;-60
2022/10/04 10:21:32;;;;;;;3.43;1.63;;;;;;;13.52;100.00;99034.47;15284289;19;20021;-60
2022/10/04 10:27:18;;;;;;;4.95;1.35;;;;;;;13.53;100.00;99042.41;15291316;19;20022;-60
2022/10/04 10:33:21;;;;;;;3.38;1.25;;;;;;;13.72;100.00;99040.41;15285681;19;20014;-60
2022/10/04 10:39:04;;;;;;;3.70;1.10;;;;;;;13.98;100.00;99024.03;15287299;19;20085;-60
2022/10/04 10:44:55;;;;;;;3.08;1.00;;;;;;;14.07;100.00;99029.44;15287980;19;20010;-60
2022/10/04 10:50:57;;;;;;;4.00;0.97;;;;;;;14.25;100.00;99021.97;15285157;19;20361;-60
2022/10/04 10:56:35;;;;;;;2.22;0.90;;;;;;;14.47;100.00;99027.72;15288627;19;20025;-61
2022/10/04 11:02:28;;;;;;;3.67;1.30;;;;;;;14.74;100.00;99020.25;15280234;19;20549;-60
2022/10/04 11:08:29;;;;;;;6.28;1.00;;;;;;;14.75;100.00;99013.81;15291098;19;20485;-60
2022/10/04 11:14:38;;;;;;;2.83;0.90;;;;;;;14.83;100.00;99008.34;15285142;19;20024;-60
2022/10/04 11:20:34;;;;;;;2.35;1.00;;;;;;;14.99;100.00;99003.91;15284413;19;20445;-60
2022/10/04 11:26:32;;;;;;;2.08;0.90;;;;;;;15.10;100.00;98990.81;15281890;19;20011;-59
2022/10/04 11:32:24;;;;;;;5.00;0.80;;;;;;;15.21;100.00;98996.84;15283011;19;20043;-60
2022/10/04 11:38:06;;;;;;;3.72;0.93;;;;;;;15.31;100.00;98989.34;15288450;19;20014;-60
2022/10/04 11:43:54;;;;;;;1.80;0.77;;;;;;;15.40;100.00;98979.28;15282728;19;20017;-59
2022/10/04 11:49:41;;;;;;;2.42;0.82;;;;;;;15.55;100.00;98965.78;15285444;19;20022;-60
2022/10/04 11:55:41;;;;;;;1.35;0.60;;;;;;;15.69;100.00;98967.72;15278137;19;20014;-59
2022/10/04 12:01:30;;;;;;;1.45;0.65;;;;;;;15.78;100.00;98962.22;15283373;19;20018;-58
2022/10/04 12:07:12;;;;;;;2.35;0.90;;;;;;;15.81;100.00;98962.69;15284645;19;20359;-59
2022/10/04 12:13:09;;;;;;;1.63;0.80;;;;;;;16.10;100.00;98957.56;15275028;19;20030;-60
2022/10/04 12:19:01;;;;;;;1.88;0.98;;;;;;;16.07;100.00;98947.03;15278821;19;20010;-60
2022/10/04 12:24:51;;;;;;;2.33;0.90;;;;;;;16.25;100.00;98944.84;15281871;19;20484;-60
2022/10/04 12:30:27;;;;;;;2.30;0.90;;;;;;;16.49;100.00;98942.91;15278786;19;20472;-58
2022/10/04 12:36:11;;;;;;;3.22;0.90;;;;;;;16.52;100.00;98938.94;15283727;19;20021;-59
2022/10/04 12:41:47;;;;;;;4.85;0.88;;;;;;;16.51;100.00;98934.53;15281177;19;20007;-59
2022/10/04 12:47:40;;;;;;;1.92;0.80;;;;;;;16.64;100.00;98932.00;15282653;19;20010;-59
2022/10/04 12:53:20;;;;;;;1.13;0.70;;;;;;;16.73;100.00;98925.44;15273298;19;20022;-59
2022/10/04 12:59:03;;;;;;;2.88;0.80;;;;;;;16.82;100.00;98920.75;15285602;19;20026;-59
2022/10/04 13:04:37;;;;;;;2.80;0.70;;;;;;;16.92;100.00;98910.41;15285571;19;20326;-58
2022/10/04 13:10:20;;;;;;;1.13;0.60;;;;;;;17.22;100.00;98912.25;15289069;19;20085;-60
2022/10/04 13:16:00;;;;;;;2.08;0.77;;;;;;;17.12;100.00;98923.44;15297481;19;20070;-60
2022/10/04 13:22:21;;;;;;;3.33;0.93;;;;;;;17.22;100.00;98906.78;15293143;19;20102;-61
2022/10/04 13:28:15;;;;;;;3.92;0.80;;;;;;;17.29;100.00;98909.59;15297779;19;20345;-59
2022/10/04 13:33:48;;;;;;;2.90;0.90;;;;;;;17.37;100.00;98902.16;15283260;19;20021;-60
2022/10/04 13:39:34;;;;;;;1.83;0.80;;;;;;;17.58;100.00;98894.19;15291877;19;20485;-58
2022/10/04 13:45:23;;;;;;;2.55;0.75;;;;;;;17.52;100.00;98896.63;15291368;19;20070;-61
2022/10/04 13:51:10;;;;;;;2.70;0.90;;;;;;;17.67;100.00;98895.72;15293370;19;20025;-61
2022/10/04 13:57:00;;;;;;;2.25;0.80;;;;;;;17.71;100.00;98884.22;15291905;19;20021;-61
2022/10/04 14:03:02;;;;;;;1.23;0.80;;;;;;;18.22;100.00;98885.06;15285069;19;20477;-61
2022/10/04 14:08:53;;;;;;;2.63;0.88;;;;;;;18.91;100.00;98886.06;15293331;19;20021;-59
2022/10/04 14:15:03;;;;;;;1.70;0.90;;;;;;;18.74;100.00;98871.06;15287601;19;20014;-61
2022/10/04 14:21:05;;;;;;;1.30;0.60;;;;;;;19.31;100.00;98866.25;15287875;19;20037;-60
2022/10/04 14:27:08;;;;;;;1.42;0.75;;;;;;;19.53;100.00;98869.63;15290217;19;20022;-60
2022/10/04 14:33:07;;;;;;;1.48;0.80;;;;;;;19.34;97.98;98852.19;15288068;19;20014;-60
2022/10/04 14:38:56;;;;;;;1.33;0.65;;;;;;;19.69;100.00;98843.78;15283678;19;20022;-60
2022/10/04 14:44:41;;;;;;;1.20;0.70;;;;;;;19.62;92.08;98837.47;15286480;19;20029;-60
2022/10/04 14:50:16;;;;;;;3.45;0.95;;;;;;;19.76;100.00;98826.53;15281412;19;20344;-58
2022/10/04 14:56:11;;;;;;;1.50;0.80;;;;;;;19.74;96.32;98821.28;15290879;19;20077;-56
2022/10/04 15:01:38;;;;;;;2.40;0.88;;;;;;;19.47;97.83;98825.88;15286859;19;20384;-58
2022/10/04 15:07:17;;;;;;;1.55;0.85;;;;;;;19.49;100.00;98830.13;15291350;19;20031;-57
2022/10/04 15:13:03;;;;;;;1.73;0.85;;;;;;;19.43;95.49;98830.94;15286330;19;20022;-58
2022/10/04 15:18:41;;;;;;;2.70;0.80;;;;;;;19.32;93.37;98823.38;15288990;19;20018;-58
2022/10/04 15:24:22;;;;;;;1.40;0.75;;;;;;;19.01;97.50;98831.06;15279309;19;20018;-57
2022/10/04 15:29:56;;;;;;;3.30;1.02;;;;;;;18.75;88.82;98819.03;15287959;19;20039;-58
2022/10/04 15:35:34;;;;;;;2.65;0.70;;;;;;;18.61;92.36;98817.28;15287731;19;20054;-57
2022/10/04 15:41:04;;;;;;;1.58;0.70;;;;;;;18.28;94.93;98818.81;15280697;19;20023;-59
2022/10/04 15:46:46;;;;;;;1.65;0.80;;;;;;;18.14;90.58;98831.53;15285831;19;20481;-59
2022/10/04 15:52:46;;;;;;;3.92;0.73;;;;;;;17.90;95.04;98840.97;15283142;19;20022;-59
2022/10/04 15:58:43;;;;;;;2.40;1.05;;;;;;;17.76;100.00;98834.59;15280407;19;20022;-57
2022/10/04 16:04:36;;;;;;;1.25;0.75;;;;;;;17.61;100.00;98834.69;15280919;19;20022;-59
2022/10/04 16:10:13;;;;;;;2.35;1.10;;;;;;;17.27;100.00;98833.53;15281388;19;20015;-59
2022/10/04 16:15:49;;;;;;;3.17;1.05;;;;;;;17.14;100.00;98834.25;15277697;19;20045;-59
2022/10/04 16:21:29;;;;;;;1.73;0.80;;;;;;;16.87;100.00;98838.53;15281785;19;20014;-59
2022/10/04 16:27:23;;;;;;;2.30;0.93;;;;;;;16.69;100.00;98822.63;15280540;19;20489;-58
2022/10/04 16:33:06;;;;;;;4.10;0.80;;;;;;;16.49;100.00;98831.38;15278903;19;20604;-57
2022/10/04 16:38:34;;;;;;;2.45;0.90;;;;;;;16.22;100.00;98822.88;15289476;19;20011;-57
2022/10/04 16:44:04;;;;;;;1.98;1.05;;;;;;;15.78;100.00;98829.09;15258567;19;20073;-59
2022/10/04 16:49:36;;;;;;;2.70;1.10;;;;;;;15.44;100.00;98827.72;15282423;19;20018;-59
2022/10/04 16:55:34;;;;;;;1.38;0.90;;;;;;;15.27;100.00;98835.16;15284034;19;20021;-59
2022/10/04 17:01:24;;;;;;;1.88;0.77;;;;;;;14.91;100.00;98834.72;15272141;19;20019;-58
2022/10/04 17:06:57;;;;;;;2.95;0.95;;;;;;;14.65;100.00;98848.53;15282839;19;20031;-58
2022/10/04 17:12:26;;;;;;;1.65;0.88;;;;;;;14.36;100.00;98846.47;15270647;19;20031;-58
2022/10/04 17:17:58;;;;;;;2.05;0.80;;;;;;;14.07;100.00;98854.19;15279003;19;20007;-57
2022/10/04 17:23:50;;;;;;;1.73;0.90;;;;;;;13.97;100.00;98864.34;15282814;19;20026;-55
2022/10/04 17:29:35;;;;;;;2.45;0.90;;;;;;;13.87;100.00;98869.97;15286528;19;20029;-58
2022/10/04 17:35:08;;;;;;;1.98;1.00;;;;;;;13.74;100.00;98875.06;15285956;19;20022;-58
2022/10/04 17:40:48;;;;;;;2.13;1.10;;;;;;;13.60;100.00;98873.88;15279527;19;20022;-59
2022/10/04 17:46:24;;;;;;;1.65;1.00;;;;;;;13.54;100.00;98867.28;15295723;19;20021;-57
2022/10/04 17:57:46;;;;;;;2.35;1.30;;;;;;;13.37;100.00;98869.09;15300139;19;20026;-59
2022/10/04 18:03:19;;;;;;;3.25;1.27;;;;;;;13.23;100.00;98859.81;15292538;19;20014;-58
2022/10/04 18:08:52;;;;;;;2.17;1.13;;;;;;;13.09;100.00;98864.03;15297988;19;20078;-57
2022/10/04 18:14:49;;;;;;;3.58;1.50;;;;;;;13.01;100.00;98855.88;15293931;19;20084;-58
2022/10/04 18:20:27;;;;;;;2.42;1.50;;;;;;;12.84;100.00;98857.69;15297683;19;20019;-60
2022/10/04 18:25:52;;;;;;;2.70;1.27;;;;;;;12.72;100.00;98854.47;15294028;19;20019;-59
2022/10/04 18:31:31;;;;;;;3.05;1.08;;;;;;;12.64;100.00;98845.31;15292856;19;20093;-61
2022/10/04 18:37:02;;;;;;;2.10;1.02;;;;;;;12.60;100.00;98854.78;15296033;19;20028;-58
2022/10/04 18:42:32;;;;;;;1.80;0.95;;;;;;;12.52;100.00;98849.34;15286790;19;20022;-56
2022/10/04 18:48:00;;;;;;;2.72;1.20;;;;;;;12.41;100.00;98858.59;15294217;19;20085;-57
2022/10/04 18:53:45;;;;;;;1.88;1.10;;;;;;;12.36;100.00;98857.38;15282507;19;20029;-56
2022/10/04 19:05:08;;;;;;;4.10;1.25;;;;;;;12.15;100.00;98874.84;15292552;19;20476;-57
2022/10/04 19:10:39;;;;;;;3.55;1.23;;;;;;;12.12;100.00;98872.44;15286432;19;20090;-58
2022/10/04 19:16:17;;;;;;;3.77;1.20;;;;;;;12.07;100.00;98877.47;15278868;19;20345;-57
2022/10/04 19:21:53;;;;;;;3.08;1.20;;;;;;;12.02;100.00;98876.13;15284960;19;20025;-58
2022/10/04 19:27:27;;;;;;;3.92;1.02;;;;;;;12.00;100.00;98883.53;15283864;19;20045;-57
2022/10/04 19:33:10;;;;;;;3.28;1.13;;;;;;;11.94;100.00;98894.06;15287859;19;20014;-57
2022/10/04 19:38:51;;;;;;;2.22;1.17;;;;;;;11.75;100.00;98901.38;15283944;19;20154;-54
2022/10/04 19:44:31;;;;;;;2.90;1.30;;;;;;;11.68;100.00;98909.25;15283274;19;20014;-57
2022/10/04 19:50:01;;;;;;;2.22;1.10;;;;;;;11.62;100.00;98901.78;15285482;19;20043;-56
2022/10/04 19:55:32;;;;;;;2.58;1.48;;;;;;;11.61;100.00;98905.47;15287507;19;20042;-56
2022/10/04 20:00:56;;;;;;;2.70;1.43;;;;;;;11.61;100.00;98905.47;15280886;19;20465;-58
2022/10/04 20:06:29;;;;;;;2.58;1.30;;;;;;;11.61;100.00;98905.47;15277090;19;20022;-56
2022/10/04 20:11:56;;;;;;;4.50;1.50;;;;;;;11.62;100.00;98912.56;15276900;19;20362;-57
2022/10/04 20:17:40;;;;;;;4.63;1.70;;;;;;;11.58;100.00;98911.22;15279507;19;20025;-56
2022/10/04 20:23:06;;;;;;;3.70;1.42;;;;;;;11.56;100.00;98918.59;15285936;19;20472;-56
2022/10/04 20:28:55;;;;;;;3.25;1.60;;;;;;;11.53;100.00;98917.03;15289682;19;20015;-56
2022/10/04 20:34:35;;;;;;;2.28;1.50;;;;;;;11.50;100.00;98909.28;15281564;19;20383;-56
2022/10/04 20:40:04;;;;;;;2.90;1.42;;;;;;;11.43;100.00;98921.66;15283785;19;20018;-55
2022/10/04 20:45:32;;;;;;;3.17;1.50;;;;;;;11.39;100.00;98923.84;15277875;19;20021;-54
2022/10/04 20:50:57;;;;;;;3.22;1.50;;;;;;;11.33;100.00;98913.69;15282642;19;20357;-57
2022/10/04 20:56:25;;;;;;;2.75;1.52;;;;;;;11.25;100.00;98917.13;15275715;19;20015;-55
2022/10/04 21:02:11;;;;;;;2.33;1.20;;;;;;;11.24;100.00;98928.06;15278049;19;20392;-56
2022/10/04 21:07:35;;;;;;;2.70;1.30;;;;;;;11.22;100.00;98927.38;15278298;19;20018;-58
2022/10/04 21:13:00;;;;;;;2.53;1.20;;;;;;;11.15;100.00;98919.06;15280592;19;20369;-57
2022/10/04 21:18:27;;;;;;;2.40;1.23;;;;;;;11.12;100.00;98927.44;15286278;19;20021;-56
2022/10/04 21:23:52;;;;;;;3.25;1.20;;;;;;;11.08;100.00;98921.53;15285259;19;20358;-57
2022/10/04 21:29:16;;;;;;;2.25;1.20;;;;;;;11.04;100.00;98921.97;15295783;19;20014;-56
2022/10/04 21:34:44;;;;;;;3.88;1.20;;;;;;;11.01;100.00;98923.09;15286681;19;20358;-55
2022/10/04 21:40:14;;;;;;;4.07;1.20;;;;;;;10.95;100.00;98927.25;15293537;19;20023;-58
2022/10/04 21:45:38;;;;;;;4.47;1.30;;;;;;;10.92;100.00;98918.63;15288551;19;20024;-56
2022/10/04 21:51:05;;;;;;;2.97;1.20;;;;;;;10.91;100.00;98908.84;15293995;19;20373;-58
2022/10/04 21:56:29;;;;;;;1.95;1.05;;;;;;;10.87;100.00;98888.59;15294082;19;20038;-53
2022/10/04 22:01:53;;;;;;;2.97;1.20;;;;;;;10.83;100.00;98889.91;15291110;19;20021;-53
2022/10/04 22:07:21;;;;;;;4.07;1.10;;;;;;;10.78;100.00;98884.97;15287433;19;20026;-55
2022/10/04 22:12:45;;;;;;;2.65;1.30;;;;;;;10.78;100.00;98877.72;15291932;19;20018;-52
2022/10/04 22:18:10;;;;;;;3.78;1.17;;;;;;;10.76;100.00;98868.91;15289347;19;20032;-53
2022/10/04 22:23:39;;;;;;;3.95;1.20;;;;;;;10.75;100.00;98856.47;15286330;19;20361;-52
2022/10/04 22:29:04;;;;;;;2.72;1.08;;;;;;;10.70;100.00;98852.53;15288189;19;20015;-55
2022/10/04 22:34:28;;;;;;;2.33;1.00;;;;;;;10.65;100.00;98847.56;15279820;19;20018;-54
2022/10/04 22:39:56;;;;;;;3.63;1.20;;;;;;;10.71;100.00;98832.66;15284708;19;20027;-56
2022/10/04 22:45:25;;;;;;;2.47;1.05;;;;;;;10.76;100.00;98820.41;15285234;19;20349;-57
2022/10/04 22:50:51;;;;;;;3.10;1.08;;;;;;;10.79;100.00;98813.88;15291419;19;20018;-54
2022/10/04 22:56:18;;;;;;;5.25;1.00;;;;;;;10.89;100.00;98811.09;15283948;19;20029;-56
2022/10/04 23:01:43;;;;;;;2.28;1.10;;;;;;;10.90;100.00;98802.88;15291463;19;20022;-56
2022/10/04 23:07:07;;;;;;;2.58;1.20;;;;;;;10.93;100.00;98797.19;15291858;19;20027;-56
2022/10/04 23:12:42;;;;;;;1.73;1.00;;;;;;;10.98;100.00;98791.31;15281652;19;20014;-52
2022/10/04 23:18:15;;;;;;;4.45;1.10;;;;;;;10.97;100.00;98799.56;15289632;19;20019;-54
2022/10/04 23:23:39;;;;;;;2.10;0.90;;;;;;;10.90;100.00;98793.94;15284596;19;20018;-53
2022/10/04 23:29:07;;;;;;;1.88;0.88;;;;;;;10.82;100.00;98785.78;15289874;19;20023;-52
2022/10/04 23:34:41;;;;;;;1.83;1.00;;;;;;;10.79;100.00;98771.59;15284383;19;20030;-53
2022/10/04 23:40:14;;;;;;;2.20;0.98;;;;;;;10.73;100.00;98780.31;15282568;19;20030;-56
2022/10/04 23:45:43;;;;;;;4.45;1.02;;;;;;;10.65;100.00;98774.81;15282277;19;20018;-56
2022/10/04 23:51:08;;;;;;;2.65;0.80;;;;;;;10.59;100.00;98775.44;15286912;19;20014;-53
2022/10/04 23:56:39;;;;;;;2.33;0.90;;;;;;;10.53;100.00;98773.34;15284944;19;20021;-57
